createdAt,value
2024-05-09T00:00:44.059Z,7.34
2024-05-09T00:03:31.765Z,7.30
2024-05-09T00:05:59.406Z,7.25
2024-05-09T00:08:27.083Z,7.20
2024-05-09T00:10:54.909Z,7.15
2024-05-09T00:13:22.509Z,7.10
2024-05-09T00:15:49.921Z,7.05
2024-05-09T00:18:17.704Z,7.01
2024-05-09T00:20:45.565Z,6.97
2024-05-09T00:23:14.129Z,6.92
2024-05-09T00:25:45.165Z,6.86
2024-05-09T00:28:13.949Z,6.78
2024-05-09T00:30:41.563Z,6.71
2024-05-09T00:33:10.660Z,6.66
2024-05-09T00:35:39.607Z,6.61
2024-05-09T00:38:08.023Z,6.56
2024-05-09T00:40:40.901Z,6.51
2024-05-09T00:43:13.183Z,6.45
2024-05-09T00:45:42.975Z,6.37
2024-05-09T00:48:15.244Z,6.35
2024-05-09T00:50:46.923Z,6.28
2024-05-09T00:53:16.867Z,6.24
2024-05-09T00:55:45.499Z,6.19
2024-05-09T00:58:17.951Z,6.13
2024-05-09T01:00:46.403Z,6.08
2024-05-09T01:03:14.586Z,6.01
2024-05-09T01:05:44.329Z,5.94
2024-05-09T01:08:12.978Z,5.88
2024-05-09T01:10:44.812Z,5.80
2024-05-09T01:13:13.681Z,5.76
2024-05-09T01:15:41.736Z,5.68
2024-05-09T01:18:14.085Z,5.61
2024-05-09T01:20:44.332Z,5.52
2024-05-09T01:23:15.162Z,5.44
2024-05-09T01:25:45.608Z,5.36
2024-05-09T01:28:14.799Z,5.31
2024-05-09T01:30:42.428Z,5.25
2024-05-09T01:33:11.785Z,5.20
2024-05-09T01:35:40.625Z,5.14
2024-05-09T01:38:13.250Z,5.09
2024-05-09T01:40:42.659Z,5.00
2024-05-09T01:43:11.525Z,4.93
2024-05-09T01:45:41.462Z,4.88
2024-05-09T01:48:10.457Z,4.81
2024-05-09T01:50:41.737Z,4.75
2024-05-09T01:53:15.012Z,4.69
2024-05-09T01:55:43.990Z,4.64
2024-05-09T01:58:12.913Z,4.58
2024-05-09T02:00:42.661Z,4.50
2024-05-09T02:03:15.517Z,4.43
2024-05-09T02:05:47.449Z,4.37
2024-05-09T02:08:19.312Z,4.31
2024-05-09T02:10:49.245Z,4.25
2024-05-09T02:13:18.765Z,4.19
2024-05-09T02:15:46.525Z,4.15
2024-05-09T02:18:14.491Z,4.05
2024-05-09T02:20:43.031Z,3.98
2024-05-09T02:23:11.417Z,3.94
2024-05-09T02:25:39.935Z,3.86
2024-05-09T02:28:07.990Z,3.79
2024-05-09T02:30:40.110Z,3.76
2024-05-09T02:33:12.000Z,3.70
2024-05-09T02:35:42.807Z,3.66
2024-05-09T02:38:11.273Z,3.62
2024-05-09T02:40:40.079Z,3.55
2024-05-09T02:43:10.575Z,3.49
2024-05-09T02:45:39.713Z,3.46
2024-05-09T02:48:10.646Z,3.41
2024-05-09T02:50:40.471Z,3.37
2024-05-09T02:53:08.990Z,3.33
2024-05-09T02:55:41.709Z,3.29
2024-05-09T02:58:10.465Z,3.26
2024-05-09T03:00:41.253Z,3.21
2024-05-09T03:03:13.439Z,3.16
2024-05-09T03:05:44.765Z,3.13
2024-05-09T03:08:12.944Z,3.11
2024-05-09T03:10:40.786Z,3.07
2024-05-09T03:13:11.082Z,3.05
2024-05-09T03:15:39.306Z,3.03
2024-05-09T03:18:07.367Z,3.02
2024-05-09T03:20:36.355Z,3.00
2024-05-09T03:23:07.179Z,3.00
2024-05-09T03:25:35.006Z,2.98
2024-05-09T03:28:02.522Z,2.99
2024-05-09T03:30:38.770Z,2.98
2024-05-09T03:33:33.037Z,2.99
2024-05-09T03:36:02.431Z,3.00
2024-05-09T03:38:30.492Z,3.02
2024-05-09T03:40:58.465Z,3.04
2024-05-09T03:43:26.029Z,3.07
2024-05-09T03:45:53.468Z,3.10
2024-05-09T03:48:21.245Z,3.15
2024-05-09T03:50:50.392Z,3.19
2024-05-09T03:53:18.091Z,3.24
2024-05-09T03:55:47.922Z,3.30
2024-05-09T03:58:15.514Z,3.36
2024-05-09T04:00:43.117Z,3.43
2024-05-09T04:03:12.452Z,3.51
2024-05-09T04:05:45.797Z,3.60
2024-05-09T04:08:15.232Z,3.68
2024-05-09T04:10:43.438Z,3.77
2024-05-09T04:13:11.207Z,3.88
2024-05-09T04:15:39.531Z,3.99
2024-05-09T04:18:07.157Z,4.11
2024-05-09T04:20:39.104Z,4.23
2024-05-09T04:23:13.503Z,4.36
2024-05-09T04:25:43.300Z,4.49
2024-05-09T04:28:10.842Z,4.63
2024-05-09T04:30:40.898Z,4.78
2024-05-09T04:33:11.787Z,4.93
2024-05-09T04:35:44.800Z,5.11
2024-05-09T04:38:13.973Z,5.38
2024-05-09T04:40:42.254Z,5.62
2024-05-09T04:43:19.244Z,5.80
2024-05-09T04:45:46.980Z,6.01
2024-05-09T04:48:14.756Z,6.22
2024-05-09T04:50:42.619Z,6.49
2024-05-09T04:53:15.818Z,6.77
2024-05-09T04:55:43.436Z,6.91
2024-05-09T04:58:14.345Z,7.14
2024-05-09T05:00:43.471Z,7.31
2024-05-09T05:03:14.253Z,7.44
2024-05-09T05:05:45.810Z,7.58
2024-05-09T05:08:18.793Z,7.74
2024-05-09T05:10:48.258Z,7.93
2024-05-09T05:13:17.688Z,8.08
2024-05-09T05:15:46.829Z,8.26
2024-05-09T05:18:15.314Z,8.42
2024-05-09T05:20:43.318Z,8.55
2024-05-09T05:23:16.175Z,8.73
2024-05-09T05:25:44.477Z,8.88
2024-05-09T05:28:12.084Z,9.01
2024-05-09T05:30:41.117Z,9.18
2024-05-09T05:33:13.675Z,9.30
2024-05-09T05:35:42.019Z,9.43
2024-05-09T05:38:10.869Z,9.53
2024-05-09T05:40:39.875Z,9.62
2024-05-09T05:43:10.375Z,9.75
2024-05-09T05:45:39.018Z,9.89
2024-05-09T05:48:07.939Z,10.06
2024-05-09T05:50:37.859Z,10.17
2024-05-09T05:53:08.095Z,10.26
2024-05-09T05:55:37.249Z,10.38
2024-05-09T05:58:04.944Z,10.51
2024-05-09T06:00:38.777Z,10.62
2024-05-09T06:03:09.613Z,10.72
2024-05-09T06:05:45.859Z,10.84
2024-05-09T06:08:14.032Z,10.98
2024-05-09T06:10:42.488Z,11.09
2024-05-09T06:13:11.230Z,11.20
2024-05-09T06:15:40.086Z,11.29
2024-05-09T06:18:09.281Z,11.40
2024-05-09T06:20:39.496Z,11.50
2024-05-09T06:23:08.279Z,11.61
2024-05-09T06:25:36.342Z,11.68
2024-05-09T06:28:04.420Z,11.76
2024-05-09T06:30:38.627Z,11.91
2024-05-09T06:33:11.269Z,12.05
2024-05-09T06:35:40.988Z,12.16
2024-05-09T06:38:09.357Z,12.30
2024-05-09T06:40:42.365Z,12.37
2024-05-09T06:43:17.553Z,12.49
2024-05-09T06:45:48.922Z,12.60
2024-05-09T06:48:19.485Z,12.72
2024-05-09T06:50:47.554Z,12.85
2024-05-09T06:53:16.585Z,12.95
2024-05-09T06:55:44.259Z,13.07
2024-05-09T06:58:13.308Z,13.17
2024-05-09T07:00:42.091Z,13.31
2024-05-09T07:03:12.745Z,13.49
2024-05-09T07:05:42.513Z,13.63
2024-05-09T07:08:10.505Z,13.73
2024-05-09T07:10:38.552Z,13.89
2024-05-09T07:13:10.227Z,14.02
2024-05-09T07:15:38.118Z,14.07
2024-05-09T07:18:13.705Z,14.14
2024-05-09T07:20:42.219Z,14.27
2024-05-09T07:23:10.604Z,14.39
2024-05-09T07:25:39.966Z,14.52
2024-05-09T07:28:13.470Z,14.56
2024-05-09T07:30:41.682Z,14.70
2024-05-09T07:33:09.529Z,14.83
2024-05-09T07:35:37.357Z,14.97
2024-05-09T07:38:05.072Z,15.11
2024-05-09T07:40:36.209Z,15.19
2024-05-09T07:43:06.582Z,15.36
2024-05-09T07:53:37.024Z,15.80
2024-05-09T07:55:57.607Z,15.99
2024-05-09T07:58:28.278Z,16.08
2024-05-09T08:00:55.985Z,16.22
2024-05-09T08:03:24.221Z,16.35
2024-05-09T08:05:52.146Z,16.43
2024-05-09T08:08:20.085Z,16.51
2024-05-09T08:10:47.771Z,16.62
2024-05-09T08:13:15.384Z,16.73
2024-05-09T08:15:43.232Z,16.85
2024-05-09T08:18:11.253Z,16.94
2024-05-09T08:20:40.142Z,17.00
2024-05-09T08:23:07.640Z,17.12
2024-05-09T08:25:35.103Z,17.26
2024-05-09T08:28:04.676Z,17.36
2024-05-09T08:30:36.882Z,17.32
2024-05-09T08:33:07.038Z,17.48
2024-05-09T08:35:35.869Z,17.63
2024-05-09T08:38:05.092Z,17.73
2024-05-09T08:40:36.003Z,17.93
2024-05-09T08:43:11.232Z,18.04
2024-05-09T08:45:43.989Z,18.07
2024-05-09T08:48:15.220Z,18.15
2024-05-09T08:50:45.137Z,18.25
2024-05-09T08:53:14.987Z,18.28
2024-05-09T08:55:44.547Z,18.41
2024-05-09T08:58:15.930Z,18.64
2024-05-09T09:00:45.634Z,18.92
2024-05-09T09:03:19.079Z,19.33
2024-05-09T09:05:59.008Z,19.79
2024-05-09T09:08:26.693Z,20.18
2024-05-09T09:10:58.610Z,20.49
2024-05-09T09:13:27.405Z,20.83
2024-05-09T09:15:58.156Z,20.96
2024-05-09T09:18:27.318Z,21.15
2024-05-09T09:20:56.067Z,21.34
2024-05-09T09:23:23.844Z,21.54
2024-05-09T09:25:51.850Z,21.90
2024-05-09T09:28:23.257Z,21.81
2024-05-09T09:30:51.045Z,22.18
2024-05-09T09:33:19.246Z,22.50
2024-05-09T09:35:46.945Z,22.81
2024-05-09T09:38:21.047Z,23.05
2024-05-09T09:40:50.423Z,23.53
2024-05-09T09:43:22.419Z,23.78
2024-05-09T09:45:53.161Z,24.19
2024-05-09T09:48:22.774Z,24.25
2024-05-09T09:50:52.251Z,24.27
2024-05-09T09:53:20.519Z,24.78
2024-05-09T09:55:48.144Z,25.23
2024-05-09T09:58:19.060Z,25.42
2024-05-09T10:00:46.952Z,25.50
2024-05-09T10:03:14.677Z,25.82
2024-05-09T10:05:46.241Z,25.87
2024-05-09T10:08:17.495Z,25.93
2024-05-09T10:10:49.855Z,25.98
2024-05-09T10:13:19.747Z,25.42
2024-05-09T10:15:51.718Z,25.08
2024-05-09T10:18:25.056Z,25.04
2024-05-09T10:20:55.786Z,25.24
2024-05-09T10:23:30.194Z,25.44
2024-05-09T10:26:04.369Z,25.67
2024-05-09T10:28:33.841Z,25.93
2024-05-09T10:31:15.337Z,25.97
2024-05-09T10:33:51.588Z,25.94
2024-05-09T10:36:21.158Z,26.06
2024-05-09T10:38:50.072Z,26.35
2024-05-09T10:41:18.100Z,26.52
2024-05-09T10:43:46.378Z,26.61
2024-05-09T10:46:18.616Z,26.67
2024-05-09T10:48:47.054Z,26.82
2024-05-09T10:51:15.140Z,26.72
2024-05-09T10:53:46.870Z,26.88
2024-05-09T10:56:14.737Z,26.97
2024-05-09T10:58:42.388Z,26.85
2024-05-09T11:01:12.969Z,26.82
2024-05-09T11:03:41.006Z,26.92
2024-05-09T11:06:10.506Z,27.07
2024-05-09T11:08:38.981Z,27.26
2024-05-09T11:11:08.511Z,27.10
2024-05-09T11:13:40.427Z,27.28
2024-05-09T11:16:20.619Z,27.24
2024-05-09T11:18:56.589Z,27.29
2024-05-09T11:21:24.808Z,26.68
2024-05-09T11:23:52.529Z,26.53
2024-05-09T11:26:21.794Z,25.90
2024-05-09T11:28:50.138Z,25.81
2024-05-09T11:31:18.039Z,25.92
2024-05-09T11:33:46.405Z,26.15
2024-05-09T11:36:14.656Z,26.13
2024-05-09T11:38:42.437Z,26.02
2024-05-09T11:41:17.015Z,26.00
2024-05-09T11:43:44.644Z,25.87
2024-05-09T11:46:12.268Z,25.99
2024-05-09T11:48:39.949Z,25.81
2024-05-09T11:51:07.732Z,25.76
2024-05-09T11:53:35.156Z,25.71
2024-05-09T11:56:02.902Z,25.70
2024-05-09T11:58:34.204Z,25.13
2024-05-09T12:01:01.910Z,24.82
2024-05-09T12:03:29.604Z,24.50
2024-05-09T12:05:57.469Z,24.10
2024-05-09T12:08:26.847Z,24.03
2024-05-09T12:10:54.614Z,23.71
2024-05-09T12:13:22.289Z,23.26
2024-05-09T12:15:49.928Z,22.88
2024-05-09T12:18:17.447Z,22.52
2024-05-09T12:20:44.926Z,22.43
2024-05-09T12:23:12.467Z,22.33
2024-05-09T12:25:40.312Z,22.16
2024-05-09T12:28:08.280Z,21.86
2024-05-09T12:30:41.438Z,21.80
2024-05-09T12:33:12.470Z,21.82
2024-05-09T12:35:44.034Z,21.65
2024-05-09T12:38:14.660Z,21.35
2024-05-09T12:40:42.623Z,21.06
2024-05-09T12:43:11.368Z,20.71
2024-05-09T12:45:39.807Z,20.43
2024-05-09T12:48:11.342Z,20.11
2024-05-09T12:50:40.331Z,20.07
2024-05-09T12:53:07.968Z,20.13
2024-05-09T12:55:44.108Z,20.20
2024-05-09T12:58:17.808Z,20.29
2024-05-09T13:00:46.097Z,20.38
2024-05-09T13:03:14.256Z,20.40
2024-05-09T13:05:44.285Z,20.32
2024-05-09T13:08:12.887Z,20.24
2024-05-09T13:10:40.585Z,20.09
2024-05-09T13:13:11.706Z,19.97
2024-05-09T13:15:39.486Z,19.93
2024-05-09T13:18:07.650Z,19.91
2024-05-09T13:20:36.732Z,19.89
2024-05-09T13:23:06.351Z,20.02
2024-05-09T13:25:37.143Z,20.09
2024-05-09T13:28:06.298Z,20.12
2024-05-09T13:30:39.553Z,20.13
2024-05-09T13:33:11.675Z,20.18
2024-05-09T13:35:47.428Z,20.21
2024-05-09T13:38:19.676Z,20.12
2024-05-09T13:40:48.307Z,20.12
2024-05-09T13:43:16.192Z,20.14
2024-05-09T13:45:43.978Z,20.18
2024-05-09T13:48:11.833Z,20.25
2024-05-09T13:50:39.750Z,20.29
2024-05-09T13:53:08.362Z,20.40
2024-05-09T13:55:40.494Z,20.48
2024-05-09T13:58:09.443Z,20.43
2024-05-09T14:00:44.923Z,20.36
2024-05-09T14:03:18.665Z,20.34
2024-05-09T14:05:49.335Z,20.33
2024-05-09T14:08:19.274Z,20.24
2024-05-09T14:10:47.522Z,20.26
2024-05-09T14:13:15.731Z,20.27
2024-05-09T14:15:43.524Z,20.21
2024-05-09T14:18:13.579Z,20.31
2024-05-09T14:20:42.762Z,20.41
2024-05-09T14:23:10.790Z,20.48
2024-05-09T14:25:42.053Z,20.50
2024-05-09T14:28:12.728Z,20.55
2024-05-09T14:30:41.923Z,20.65
2024-05-09T14:33:10.962Z,20.63
2024-05-09T14:35:39.111Z,20.66
2024-05-09T14:38:07.951Z,20.68
2024-05-09T14:40:41.432Z,20.63
2024-05-09T14:43:12.717Z,20.50
2024-05-09T14:45:41.357Z,20.42
2024-05-09T14:48:09.945Z,20.39
2024-05-09T14:50:39.628Z,20.30
2024-05-09T14:53:10.399Z,20.22
2024-05-09T14:55:40.161Z,20.20
2024-05-09T14:58:10.125Z,20.10
2024-05-09T15:00:46.287Z,20.06
2024-05-09T15:03:18.737Z,20.02
2024-05-09T15:05:46.999Z,19.95
2024-05-09T15:08:16.536Z,19.84
2024-05-09T15:10:44.221Z,19.80
2024-05-09T15:13:13.465Z,19.77
2024-05-09T15:15:43.238Z,19.78
2024-05-09T15:18:11.093Z,19.77
2024-05-09T15:20:40.258Z,19.74
2024-05-09T15:23:08.007Z,19.66
2024-05-09T15:25:36.765Z,19.60
2024-05-09T15:28:07.053Z,19.61
2024-05-09T15:30:35.188Z,19.65
2024-05-09T15:33:03.912Z,19.66
2024-05-09T15:35:33.170Z,19.64
2024-05-09T15:38:02.627Z,19.57
2024-05-09T15:40:37.731Z,19.53
2024-05-09T15:43:10.043Z,19.52
2024-05-09T15:45:40.845Z,19.53
2024-05-09T15:48:09.453Z,19.47
2024-05-09T15:50:40.699Z,19.41
2024-05-09T15:53:12.033Z,19.37
2024-05-09T15:55:41.601Z,19.32
2024-05-09T15:58:10.076Z,19.27
2024-05-09T16:00:41.525Z,19.23
2024-05-09T16:03:12.402Z,19.18
2024-05-09T16:05:45.388Z,19.09
2024-05-09T16:08:14.520Z,19.01
2024-05-09T16:10:45.754Z,18.92
2024-05-09T16:13:15.291Z,18.77
2024-05-09T16:15:43.658Z,18.66
2024-05-09T16:18:11.923Z,18.65
2024-05-09T16:20:41.732Z,18.60
2024-05-09T16:23:11.146Z,18.58
2024-05-09T16:25:39.438Z,18.52
2024-05-09T16:28:10.090Z,18.44
2024-05-09T16:30:39.837Z,18.39
2024-05-09T16:33:08.707Z,18.32
2024-05-09T16:35:37.813Z,18.24
2024-05-09T16:38:08.643Z,18.16
2024-05-09T16:40:40.076Z,18.12
2024-05-09T16:43:10.773Z,18.04
2024-05-09T16:45:40.688Z,17.99
2024-05-09T16:48:08.950Z,17.94
2024-05-09T16:50:37.432Z,17.89
2024-05-09T16:53:06.279Z,17.84
2024-05-09T16:55:35.838Z,17.81
2024-05-09T16:58:05.044Z,17.76
2024-05-09T17:00:40.368Z,17.71
2024-05-09T17:03:14.298Z,17.62
2024-05-09T17:05:45.193Z,17.55
2024-05-09T17:08:14.393Z,17.48
2024-05-09T17:10:42.080Z,17.40
2024-05-09T17:13:09.928Z,17.33
2024-05-09T17:15:37.910Z,17.27
2024-05-09T17:18:07.246Z,17.20
2024-05-09T17:20:37.327Z,17.13
2024-05-09T17:23:15.155Z,17.06
2024-05-09T17:25:43.236Z,16.96
2024-05-09T17:28:11.494Z,16.87
2024-05-09T17:30:41.649Z,16.80
2024-05-09T17:33:11.642Z,16.72
2024-05-09T17:35:40.708Z,16.62
2024-05-09T17:38:08.567Z,16.51
2024-05-09T17:40:38.115Z,16.42
2024-05-09T17:43:09.412Z,16.30
2024-05-09T17:45:40.491Z,16.19
2024-05-09T17:48:09.521Z,16.07
2024-05-09T17:50:38.074Z,15.95
2024-05-09T17:53:06.646Z,15.83
2024-05-09T17:55:34.808Z,15.70
2024-05-09T17:58:03.884Z,15.56
2024-05-09T18:00:38.369Z,15.43
2024-05-09T18:03:13.341Z,15.30
2024-05-09T18:05:44.422Z,15.18
2024-05-09T18:08:13.082Z,15.05
2024-05-09T18:10:41.473Z,14.94
2024-05-09T18:13:10.923Z,14.83
2024-05-09T18:15:39.197Z,14.71
2024-05-09T18:18:07.869Z,14.58
2024-05-09T18:20:42.126Z,14.43
2024-05-09T18:23:17.846Z,14.26
2024-05-09T18:25:48.006Z,14.10
2024-05-09T18:28:16.990Z,13.99
2024-05-09T18:30:45.205Z,13.87
2024-05-09T18:33:13.112Z,13.76
2024-05-09T18:35:42.876Z,13.64
2024-05-09T18:38:10.660Z,13.54
2024-05-09T18:40:39.474Z,13.40
2024-05-09T18:43:09.184Z,13.26
2024-05-09T18:45:38.210Z,13.15
2024-05-09T18:48:08.387Z,13.02
2024-05-09T18:50:39.796Z,12.88
2024-05-09T18:53:11.741Z,12.78
2024-05-09T18:55:41.586Z,12.66
2024-05-09T18:58:09.282Z,12.52
2024-05-09T19:00:39.656Z,12.40
2024-05-09T19:03:12.392Z,12.26
2024-05-09T19:05:43.556Z,12.14
2024-05-09T19:08:12.505Z,12.03
2024-05-09T19:10:40.493Z,11.93
2024-05-09T19:13:12.039Z,11.83
2024-05-09T19:15:42.783Z,11.72
2024-05-09T19:18:12.578Z,11.62
2024-05-09T19:20:40.779Z,11.50
2024-05-09T19:23:08.328Z,11.41
2024-05-09T19:25:36.409Z,11.32
2024-05-09T19:28:05.578Z,11.23
2024-05-09T19:30:39.102Z,11.14
2024-05-09T19:33:12.850Z,11.05
2024-05-09T19:35:42.821Z,10.97
2024-05-09T19:38:11.611Z,10.89
2024-05-09T19:40:39.296Z,10.82
2024-05-09T19:43:07.040Z,10.73
2024-05-09T19:45:35.747Z,10.66
2024-05-09T19:48:05.418Z,10.56
2024-05-09T19:50:41.690Z,10.45
2024-05-09T19:53:14.059Z,10.32
2024-05-09T19:55:42.286Z,10.25
2024-05-09T19:58:10.350Z,10.16
2024-05-09T20:00:40.638Z,10.08
2024-05-09T20:03:11.688Z,10.02
2024-05-09T20:05:40.062Z,9.96
2024-05-09T20:08:07.866Z,9.90
2024-05-09T20:10:36.552Z,9.83
2024-05-09T20:13:06.684Z,9.76
2024-05-09T20:15:36.439Z,9.68
2024-05-09T20:18:04.800Z,9.63
2024-05-09T20:20:38.927Z,9.57
2024-05-09T20:23:10.607Z,9.51
2024-05-09T20:25:38.308Z,9.44
2024-05-09T20:28:07.751Z,9.38
2024-05-09T20:30:36.277Z,9.32
2024-05-09T20:33:09.474Z,9.26
2024-05-09T20:35:37.794Z,9.19
2024-05-09T20:38:05.455Z,9.12
2024-05-09T20:40:37.075Z,9.06
2024-05-09T20:43:10.323Z,9.00
2024-05-09T20:45:39.847Z,8.93
2024-05-09T20:48:08.751Z,8.87
2024-05-09T20:50:40.590Z,8.81
2024-05-09T20:53:11.861Z,8.77
2024-05-09T20:55:40.203Z,8.72
2024-05-09T20:58:08.308Z,8.66
2024-05-09T21:00:40.316Z,8.59
2024-05-09T21:03:13.146Z,8.54
2024-05-09T21:05:41.933Z,8.46
2024-05-09T21:08:09.613Z,8.39
2024-05-09T21:10:37.661Z,8.34
2024-05-09T21:13:06.527Z,8.29
2024-05-09T21:15:34.986Z,8.23
2024-05-09T21:18:03.590Z,8.18
2024-05-09T21:20:33.348Z,8.12
2024-05-09T21:23:01.912Z,8.06
2024-05-09T21:25:30.714Z,8.03
2024-05-09T21:27:58.540Z,7.96
2024-05-09T21:30:37.032Z,7.91
2024-05-09T21:33:10.491Z,7.86
2024-05-09T21:35:40.698Z,7.80
2024-05-09T21:38:08.421Z,7.75
2024-05-09T21:40:37.873Z,7.70
2024-05-09T21:43:07.639Z,7.66
2024-05-09T21:45:36.244Z,7.62
2024-05-09T21:48:05.183Z,7.58
2024-05-09T21:50:39.588Z,7.55
2024-05-09T21:53:13.284Z,7.53
2024-05-09T21:55:46.835Z,7.49
2024-05-09T21:58:14.864Z,7.44
2024-05-09T22:00:45.525Z,7.39
2024-05-09T22:03:13.661Z,7.34
2024-05-09T22:05:43.293Z,7.31
2024-05-09T22:08:10.735Z,7.26
2024-05-09T22:10:38.672Z,7.22
2024-05-09T22:13:07.396Z,7.17
2024-05-09T22:15:38.191Z,7.12
2024-05-09T22:18:07.457Z,7.07
2024-05-09T22:20:38.448Z,7.02
2024-05-09T22:23:08.278Z,6.97
2024-05-09T22:25:36.912Z,6.93
2024-05-09T22:28:05.556Z,6.89
2024-05-09T22:30:37.316Z,6.86
2024-05-09T22:33:08.450Z,6.81
2024-05-09T22:35:37.204Z,6.78
2024-05-09T22:38:05.001Z,6.73
2024-05-09T22:40:42.253Z,6.69
2024-05-09T22:43:23.990Z,6.65
2024-05-09T22:45:54.570Z,6.60
2024-05-09T22:48:23.550Z,6.56
2024-05-09T22:50:51.707Z,6.53
2024-05-09T22:53:21.842Z,6.49
2024-05-09T22:55:49.372Z,6.46
2024-05-09T22:58:17.225Z,6.43
2024-05-09T23:00:44.808Z,6.40
2024-05-09T23:03:15.535Z,6.36
2024-05-09T23:05:43.446Z,6.33
2024-05-09T23:08:10.970Z,6.29
2024-05-09T23:10:38.652Z,6.26
2024-05-09T23:13:07.785Z,6.23
2024-05-09T23:15:38.188Z,6.20
2024-05-09T23:18:06.936Z,6.17
2024-05-09T23:20:38.504Z,6.12
2024-05-09T23:23:09.785Z,6.09
2024-05-09T23:25:38.709Z,6.06
2024-05-09T23:28:06.952Z,6.03
2024-05-09T23:30:38.649Z,5.99
2024-05-09T23:33:12.955Z,5.96
2024-05-09T23:35:43.097Z,5.92
2024-05-09T23:38:10.675Z,5.92
2024-05-09T23:40:40.728Z,5.88
2024-05-09T23:43:10.483Z,5.85
2024-05-09T23:45:38.698Z,5.82
2024-05-09T23:48:07.348Z,5.79
2024-05-09T23:50:37.795Z,5.77
2024-05-09T23:53:08.782Z,5.74
2024-05-09T23:55:37.528Z,5.71
2024-05-09T23:58:06.230Z,5.68
